createdAt,value
2019-02-04T00:01:09.545Z,7.77
2019-02-04T00:03:37.115Z,8.29
2019-02-04T00:06:04.480Z,8.25
2019-02-04T00:08:31.948Z,8.17
2019-02-04T00:10:59.528Z,8.21
2019-02-04T00:13:26.930Z,8.25
2019-02-04T00:15:54.418Z,8.16
2019-02-04T00:18:21.929Z,8.04
2019-02-04T00:20:49.362Z,8.13
2019-02-04T00:23:17.219Z,7.88
2019-02-04T00:25:44.655Z,8.00
2019-02-04T00:28:12.092Z,8.13
2019-02-04T00:30:39.643Z,8.15
2019-02-04T00:33:07.125Z,8.04
2019-02-04T00:35:34.550Z,7.92
2019-02-04T00:38:02.020Z,7.94
2019-02-04T00:40:29.999Z,7.85
2019-02-04T00:42:57.482Z,7.96
2019-02-04T00:45:24.987Z,8.08
2019-02-04T00:47:52.704Z,8.03
2019-02-04T00:50:21.081Z,8.11
2019-02-04T00:52:48.571Z,8.09
2019-02-04T00:55:16.141Z,7.93
2019-02-04T00:57:43.901Z,8.03
2019-02-04T01:00:19.161Z,8.04
2019-02-04T01:02:46.777Z,7.99
2019-02-04T01:05:18.266Z,8.08
2019-02-04T01:07:46.190Z,8.05
2019-02-04T01:10:15.587Z,8.16
2019-02-04T01:12:43.112Z,8.24
2019-02-04T01:15:10.767Z,8.19
2019-02-04T01:17:38.209Z,8.45
2019-02-04T01:20:06.775Z,8.47
2019-02-04T01:22:34.207Z,8.60
2019-02-04T01:25:01.650Z,8.55
2019-02-04T01:27:29.304Z,8.51
2019-02-04T01:29:56.846Z,8.22
2019-02-04T01:32:24.305Z,8.20
2019-02-04T01:34:51.722Z,8.27
2019-02-04T01:37:19.234Z,8.29
2019-02-04T01:39:46.664Z,8.31
2019-02-04T01:42:14.108Z,8.28
2019-02-04T01:44:41.537Z,8.43
2019-02-04T01:47:14.652Z,8.42
2019-02-04T01:49:38.418Z,8.23
2019-02-04T01:52:05.864Z,8.43
2019-02-04T01:54:33.229Z,8.54
2019-02-04T01:57:00.656Z,8.47
2019-02-04T01:59:28.479Z,8.54
2019-02-04T02:01:55.954Z,8.32
2019-02-04T02:04:23.418Z,8.43
2019-02-04T02:06:51.022Z,8.51
2019-02-04T02:09:23.457Z,8.39
2019-02-04T02:11:51.100Z,8.47
2019-02-04T02:14:18.583Z,8.47
2019-02-04T02:16:46.103Z,8.48
2019-02-04T02:19:15.040Z,8.46
2019-02-04T02:21:42.496Z,8.55
2019-02-04T02:24:09.892Z,8.61
2019-02-04T02:26:37.385Z,8.60
2019-02-04T02:29:04.945Z,8.52
2019-02-04T02:31:32.413Z,8.48
2019-02-04T02:33:59.864Z,8.34
2019-02-04T02:36:27.416Z,8.17
2019-02-04T02:38:54.872Z,8.28
2019-02-04T02:41:22.327Z,8.10
2019-02-04T02:43:49.773Z,8.12
2019-02-04T02:46:17.186Z,8.04
2019-02-04T02:48:44.815Z,8.03
2019-02-04T02:51:12.230Z,8.09
2019-02-04T02:53:39.689Z,8.36
2019-02-04T02:56:07.244Z,8.36
2019-02-04T02:58:34.698Z,8.34
2019-02-04T03:01:02.130Z,8.49
2019-02-04T03:03:29.636Z,8.60
2019-02-04T03:05:57.266Z,8.63
2019-02-04T03:08:24.867Z,8.65
2019-02-04T03:10:52.320Z,8.63
2019-02-04T03:13:19.800Z,8.64
2019-02-04T03:15:47.295Z,8.65
2019-02-04T03:18:14.941Z,8.59
2019-02-04T03:20:42.372Z,8.64
2019-02-04T03:23:10.003Z,8.64
2019-02-04T03:25:37.502Z,8.64
2019-02-04T03:28:05.034Z,8.66
2019-02-04T03:30:34.366Z,8.72
2019-02-04T03:33:02.181Z,8.95
2019-02-04T03:35:29.651Z,8.97
2019-02-04T03:37:57.688Z,8.86
2019-02-04T03:40:27.403Z,8.88
2019-02-04T03:42:55.078Z,9.02
2019-02-04T03:45:22.661Z,9.00
2019-02-04T03:47:50.243Z,9.13
2019-02-04T03:50:18.229Z,9.20
2019-02-04T03:52:45.732Z,9.08
2019-02-04T03:55:13.766Z,9.10
2019-02-04T03:57:41.277Z,8.96
2019-02-04T04:00:13.439Z,8.71
2019-02-04T04:02:40.925Z,8.33
2019-02-04T04:05:08.608Z,8.08
2019-02-04T04:07:36.091Z,7.80
2019-02-04T04:10:04.641Z,7.44
2019-02-04T04:12:32.434Z,7.19
2019-02-04T04:14:59.879Z,7.00
2019-02-04T04:17:27.321Z,7.09
2019-02-04T04:19:54.824Z,7.06
2019-02-04T04:22:22.240Z,7.26
2019-02-04T04:24:49.980Z,7.35
2019-02-04T04:27:17.624Z,7.46
2019-02-04T04:29:45.102Z,7.65
2019-02-04T04:32:12.597Z,7.90
2019-02-04T04:34:40.044Z,7.92
2019-02-04T04:37:07.491Z,7.95
2019-02-04T04:39:34.991Z,7.94
2019-02-04T04:42:04.054Z,8.09
2019-02-04T04:44:31.581Z,8.24
2019-02-04T04:46:59.058Z,8.33
2019-02-04T04:49:26.614Z,8.24
2019-02-04T04:51:54.160Z,7.36
2019-02-04T04:54:21.599Z,7.99
2019-02-04T04:56:49.013Z,7.99
2019-02-04T04:59:16.763Z,8.08
2019-02-04T05:01:44.339Z,8.16
2019-02-04T05:04:11.859Z,8.30
2019-02-04T05:06:39.297Z,8.38
2019-02-04T05:09:07.001Z,8.47
2019-02-04T05:11:34.709Z,8.37
2019-02-04T05:14:02.294Z,8.39
2019-02-04T05:16:29.856Z,8.37
2019-02-04T05:18:57.495Z,8.28
2019-02-04T05:21:24.997Z,8.47
2019-02-04T05:23:52.436Z,8.26
2019-02-04T05:26:19.841Z,8.29
2019-02-04T05:28:47.276Z,8.25
2019-02-04T05:31:15.283Z,8.43
2019-02-04T05:33:42.751Z,8.34
2019-02-04T05:36:10.227Z,8.22
2019-02-04T05:38:37.682Z,8.29
2019-02-04T05:41:05.122Z,8.37
2019-02-04T05:43:32.513Z,8.62
2019-02-04T05:46:00.013Z,8.50
2019-02-04T05:48:27.937Z,8.50
2019-02-04T05:50:55.365Z,8.41
2019-02-04T05:53:22.809Z,8.58
2019-02-04T05:55:50.291Z,8.48
2019-02-04T05:58:17.799Z,8.41
2019-02-04T06:00:47.720Z,8.48
2019-02-04T06:03:15.373Z,8.54
2019-02-04T06:05:43.420Z,8.73
2019-02-04T06:08:10.894Z,8.53
2019-02-04T06:10:38.476Z,8.40
2019-02-04T06:13:06.846Z,8.20
2019-02-04T06:15:34.282Z,8.12
2019-02-04T06:18:01.663Z,8.17
2019-02-04T06:20:29.282Z,8.05
2019-02-04T06:22:56.733Z,7.82
2019-02-04T06:25:24.287Z,7.78
2019-02-04T06:27:51.877Z,7.72
2019-02-04T06:30:19.423Z,7.45
2019-02-04T06:32:47.057Z,7.71
2019-02-04T06:35:15.147Z,7.80
2019-02-04T06:37:42.950Z,7.95
2019-02-04T06:40:11.492Z,8.10
2019-02-04T06:42:38.871Z,8.28
2019-02-04T06:45:08.326Z,8.42
2019-02-04T06:47:35.833Z,8.47
2019-02-04T06:50:04.206Z,8.73
2019-02-04T06:52:31.642Z,8.95
2019-02-04T06:54:59.435Z,8.99
2019-02-04T06:57:26.791Z,9.12
2019-02-04T06:59:54.226Z,9.00
2019-02-04T07:02:21.730Z,9.06
2019-02-04T07:04:49.306Z,9.18
2019-02-04T07:07:16.828Z,9.08
2019-02-04T07:09:44.207Z,9.11
2019-02-04T07:12:11.835Z,9.01
2019-02-04T07:14:39.262Z,9.10
2019-02-04T07:17:06.773Z,9.01
2019-02-04T07:19:34.687Z,9.16
2019-02-04T07:22:02.129Z,9.25
2019-02-04T07:24:29.635Z,9.45
2019-02-04T07:26:56.992Z,9.37
2019-02-04T07:29:24.834Z,9.50
2019-02-04T07:31:52.320Z,9.54
2019-02-04T07:34:19.720Z,9.67
2019-02-04T07:36:47.157Z,9.58
2019-02-04T07:39:14.701Z,9.34
2019-02-04T07:41:42.218Z,9.35
2019-02-04T07:44:09.653Z,9.46
2019-02-04T07:46:37.414Z,9.57
2019-02-04T07:49:04.880Z,9.86
2019-02-04T07:51:32.283Z,9.90
2019-02-04T07:53:59.722Z,10.11
2019-02-04T07:56:27.192Z,10.07
2019-02-04T07:58:55.073Z,10.32
2019-02-04T08:01:22.669Z,10.05
2019-02-04T08:03:50.497Z,9.38
2019-02-04T08:06:18.013Z,9.03
2019-02-04T08:08:45.455Z,8.84
2019-02-04T08:11:12.958Z,8.72
2019-02-04T08:13:40.389Z,8.70
2019-02-04T08:16:07.745Z,8.49
2019-02-04T08:18:35.187Z,8.52
2019-02-04T08:21:03.016Z,8.47
2019-02-04T08:23:30.414Z,8.51
2019-02-04T08:25:57.851Z,8.69
2019-02-04T08:28:25.281Z,8.79
2019-02-04T08:30:52.814Z,8.91
2019-02-04T08:33:20.298Z,9.27
2019-02-04T08:35:47.877Z,9.50
2019-02-04T08:38:15.694Z,9.66
2019-02-04T08:40:43.254Z,9.68
2019-02-04T08:43:10.673Z,9.90
2019-02-04T08:45:38.205Z,10.02
2019-02-04T08:48:06.182Z,9.90
2019-02-04T08:50:33.761Z,9.75
2019-02-04T08:53:01.184Z,9.85
2019-02-04T08:55:28.619Z,10.12
2019-02-04T08:57:56.145Z,10.31
2019-02-04T09:00:24.168Z,10.29
2019-02-04T09:02:51.703Z,10.67
2019-02-04T09:05:19.391Z,10.70
2019-02-04T09:07:46.832Z,11.01
2019-02-04T09:10:19.825Z,11.24
2019-02-04T09:12:47.461Z,11.21
2019-02-04T09:15:16.267Z,11.02
2019-02-04T09:17:44.282Z,11.01
2019-02-04T09:20:13.705Z,11.01
2019-02-04T09:22:41.150Z,10.98
2019-02-04T09:25:10.485Z,11.03
2019-02-04T09:27:37.951Z,11.28
2019-02-04T09:30:08.416Z,11.59
2019-02-04T09:32:35.887Z,11.74
2019-02-04T09:35:04.665Z,11.53
2019-02-04T09:37:32.153Z,11.52
2019-02-04T09:40:00.199Z,11.66
2019-02-04T09:42:27.714Z,11.87
2019-02-04T09:44:55.384Z,12.17
2019-02-04T09:47:23.423Z,12.29
2019-02-04T09:49:50.896Z,12.62
2019-02-04T09:52:18.381Z,12.54
2019-02-04T09:54:45.828Z,12.86
2019-02-04T09:57:13.600Z,13.08
2019-02-04T09:59:41.024Z,13.07
2019-02-04T10:02:09.702Z,13.21
2019-02-04T10:04:37.643Z,13.43
2019-02-04T10:07:05.120Z,13.28
2019-02-04T10:09:32.601Z,13.38
2019-02-04T10:12:00.081Z,13.39
2019-02-04T10:14:27.576Z,13.66
2019-02-04T10:16:54.964Z,13.63
2019-02-04T10:19:22.491Z,13.59
2019-02-04T10:21:49.938Z,13.42
2019-02-04T10:24:17.738Z,13.07
2019-02-04T10:26:45.148Z,13.21
2019-02-04T10:29:12.621Z,13.42
2019-02-04T10:31:40.126Z,13.45
2019-02-04T10:34:07.593Z,13.49
2019-02-04T10:36:35.204Z,13.44
2019-02-04T10:39:04.437Z,13.28
2019-02-04T10:41:32.114Z,13.10
2019-02-04T10:43:59.776Z,12.84
2019-02-04T10:46:27.243Z,12.63
2019-02-04T10:48:54.938Z,12.60
2019-02-04T10:51:22.542Z,12.88
2019-02-04T10:53:50.566Z,13.18
2019-02-04T10:56:18.085Z,13.47
2019-02-04T10:58:45.650Z,13.39
2019-02-04T11:01:13.360Z,13.31
2019-02-04T11:03:40.815Z,13.14
2019-02-04T11:06:08.646Z,12.98
2019-02-04T11:08:36.102Z,12.93
2019-02-04T11:11:04.168Z,12.93
2019-02-04T11:13:31.573Z,12.99
2019-02-04T11:15:59.102Z,12.96
2019-02-04T11:18:26.722Z,12.93
2019-02-04T11:20:58.139Z,12.83
2019-02-04T11:23:23.593Z,12.76
2019-02-04T11:25:51.311Z,12.65
2019-02-04T11:28:19.487Z,12.55
2019-02-04T11:30:56.398Z,12.51
2019-02-04T11:33:24.139Z,12.55
2019-02-04T11:35:51.742Z,12.74
2019-02-04T11:38:19.227Z,12.74
2019-02-04T11:40:46.867Z,12.78
2019-02-04T11:43:14.490Z,13.09
2019-02-04T11:45:42.079Z,13.29
2019-02-04T11:48:10.708Z,13.22
2019-02-04T11:50:38.612Z,13.22
2019-02-04T11:53:06.241Z,13.38
2019-02-04T11:55:33.728Z,13.37
2019-02-04T11:58:04.004Z,13.54
2019-02-04T12:00:32.137Z,13.40
2019-02-04T12:03:00.412Z,13.29
2019-02-04T12:05:28.249Z,13.24
2019-02-04T12:07:55.805Z,13.33
2019-02-04T12:10:26.441Z,13.43
2019-02-04T12:12:54.009Z,13.50
2019-02-04T12:15:21.696Z,13.63
2019-02-04T12:17:49.290Z,13.79
2019-02-04T12:20:17.425Z,13.76
2019-02-04T12:22:45.599Z,13.78
2019-02-04T12:25:14.907Z,13.91
2019-02-04T12:27:42.606Z,14.03
2019-02-04T12:30:22.747Z,13.96
2019-02-04T12:32:50.283Z,13.91
2019-02-04T12:35:17.755Z,14.13
2019-02-04T12:37:45.373Z,14.14
2019-02-04T12:40:13.335Z,14.10
2019-02-04T12:42:40.990Z,13.98
2019-02-04T12:45:12.275Z,13.96
2019-02-04T12:47:39.778Z,13.92
2019-02-04T12:50:08.285Z,13.83
2019-02-04T12:52:35.766Z,13.71
2019-02-04T12:55:04.166Z,13.75
2019-02-04T12:57:31.632Z,13.75
2019-02-04T12:59:59.119Z,13.72
2019-02-04T13:02:26.573Z,13.65
2019-02-04T13:04:54.075Z,13.57
2019-02-04T13:07:21.508Z,13.64
2019-02-04T13:09:48.987Z,13.74
2019-02-04T13:12:16.536Z,13.81
2019-02-04T13:14:44.006Z,13.75
2019-02-04T13:17:11.751Z,13.79
2019-02-04T13:19:40.121Z,13.88
2019-02-04T13:22:07.617Z,13.78
2019-02-04T13:24:35.051Z,13.67
2019-02-04T13:27:02.626Z,13.80
2019-02-04T13:29:30.089Z,13.79
2019-02-04T13:31:57.590Z,13.88
2019-02-04T13:34:25.485Z,13.93
2019-02-04T13:36:53.030Z,13.93
2019-02-04T13:39:20.534Z,14.05
2019-02-04T13:41:47.965Z,14.20
2019-02-04T13:44:15.402Z,14.33
2019-02-04T13:46:42.802Z,14.32
2019-02-04T13:49:10.247Z,14.30
2019-02-04T13:51:37.928Z,14.27
2019-02-04T13:54:05.351Z,14.32
2019-02-04T13:56:32.753Z,14.29
2019-02-04T13:59:00.215Z,14.28
2019-02-04T14:01:27.930Z,14.36
2019-02-04T14:03:55.454Z,14.35
2019-02-04T14:06:22.885Z,14.38
2019-02-04T14:08:50.522Z,14.39
2019-02-04T14:11:18.080Z,14.46
2019-02-04T14:13:45.501Z,14.40
2019-02-04T14:16:13.148Z,14.43
2019-02-04T14:18:40.660Z,14.53
2019-02-04T14:21:08.757Z,14.79
2019-02-04T14:23:36.599Z,14.94
2019-02-04T14:26:04.265Z,15.26
2019-02-04T14:28:31.772Z,15.10
2019-02-04T14:30:59.335Z,14.88
2019-02-04T14:33:26.781Z,14.89
2019-02-04T14:35:54.241Z,14.79
2019-02-04T14:38:21.726Z,14.70
2019-02-04T14:40:49.822Z,14.55
2019-02-04T14:43:24.428Z,14.41
2019-02-04T14:46:17.719Z,14.37
2019-02-04T14:49:32.844Z,14.23
2019-02-04T14:52:36.867Z,14.13
2019-02-04T14:55:47.510Z,14.09
2019-02-04T14:58:44.872Z,13.96
2019-02-04T15:01:58.231Z,13.93
2019-02-04T15:04:57.750Z,13.79
2019-02-04T15:08:11.733Z,13.75
2019-02-04T15:11:13.442Z,13.73
2019-02-04T15:14:15.914Z,13.67
2019-02-04T15:17:12.161Z,13.65
2019-02-04T15:20:11.164Z,13.55
2019-02-04T15:23:23.747Z,13.54
2019-02-04T15:26:29.835Z,13.35
2019-02-04T15:29:07.849Z,13.25
2019-02-04T15:31:56.685Z,13.18
2019-02-04T15:35:05.011Z,13.14
2019-02-04T15:38:11.816Z,13.14
2019-02-04T15:41:32.743Z,13.05
2019-02-04T15:44:21.950Z,12.91
2019-02-04T15:47:04.166Z,12.78
2019-02-04T15:50:25.509Z,12.64
2019-02-04T15:52:52.969Z,12.61
2019-02-04T15:55:21.477Z,12.53
2019-02-04T15:57:49.142Z,12.51
2019-02-04T16:00:17.429Z,12.48
2019-02-04T16:02:45.074Z,12.43
2019-02-04T16:05:13.308Z,12.38
2019-02-04T16:07:40.984Z,12.37
2019-02-04T16:10:11.898Z,12.39
2019-02-04T16:12:39.473Z,12.37
2019-02-04T16:15:08.249Z,12.28
2019-02-04T16:17:35.791Z,12.22
2019-02-04T16:20:05.606Z,12.12
2019-02-04T16:22:33.518Z,12.09
2019-02-04T16:25:00.933Z,12.00
2019-02-04T16:27:28.534Z,11.93
2019-02-04T16:29:56.267Z,11.88
2019-02-04T16:32:23.932Z,11.81
2019-02-04T16:34:51.391Z,11.81
2019-02-04T16:37:18.903Z,11.82
2019-02-04T16:39:46.681Z,11.83
2019-02-04T16:42:14.243Z,11.81
2019-02-04T16:44:41.812Z,11.79
2019-02-04T16:47:09.203Z,11.87
2019-02-04T16:49:37.030Z,11.85
2019-02-04T16:52:04.449Z,11.83
2019-02-04T16:54:31.805Z,11.84
2019-02-04T16:56:59.666Z,11.81
2019-02-04T16:59:27.130Z,11.74
2019-02-04T17:01:54.610Z,11.82
2019-02-04T17:04:22.132Z,11.95
2019-02-04T17:06:50.679Z,11.82
2019-02-04T17:09:18.325Z,11.81
2019-02-04T17:11:45.753Z,11.81
2019-02-04T17:14:13.667Z,11.99
2019-02-04T17:16:41.290Z,11.89
2019-02-04T17:19:08.914Z,11.75
2019-02-04T17:21:36.308Z,11.72
2019-02-04T17:24:03.990Z,11.63
2019-02-04T17:26:31.445Z,11.62
2019-02-04T17:28:58.879Z,11.56
2019-02-04T17:31:27.157Z,11.55
2019-02-04T17:33:55.367Z,11.51
2019-02-04T17:36:22.872Z,11.51
2019-02-04T17:38:50.324Z,11.57
2019-02-04T17:41:18.423Z,11.64
2019-02-04T17:43:45.839Z,11.49
2019-02-04T17:46:13.334Z,11.22
2019-02-04T17:48:45.181Z,11.27
2019-02-04T17:51:13.535Z,11.48
2019-02-04T17:53:44.059Z,11.51
2019-02-04T17:56:11.918Z,11.44
2019-02-04T17:58:39.369Z,11.36
2019-02-04T18:01:07.323Z,11.29
2019-02-04T18:03:35.380Z,11.32
2019-02-04T18:06:03.258Z,11.46
2019-02-04T18:08:31.273Z,11.41
2019-02-04T18:11:00.183Z,11.40
2019-02-04T18:13:27.918Z,11.19
2019-02-04T18:15:55.465Z,11.02
2019-02-04T18:18:23.344Z,11.11
2019-02-04T18:20:51.768Z,11.23
2019-02-04T18:23:19.219Z,11.21
2019-02-04T18:25:46.575Z,11.24
2019-02-04T18:28:14.230Z,10.97
2019-02-04T18:30:41.682Z,10.97
2019-02-04T18:33:09.697Z,10.85
2019-02-04T18:35:38.074Z,10.93
2019-02-04T18:38:05.769Z,10.90
2019-02-04T18:40:33.254Z,10.87
2019-02-04T18:43:00.727Z,10.61
2019-02-04T18:45:29.301Z,10.38
2019-02-04T18:47:57.127Z,10.39
2019-02-04T18:50:25.986Z,10.18
2019-02-04T18:52:53.753Z,10.18
2019-02-04T18:55:24.855Z,10.21
2019-02-04T18:57:52.445Z,10.23
2019-02-04T19:00:22.125Z,10.31
2019-02-04T19:02:52.892Z,10.25
2019-02-04T19:05:26.884Z,10.17
2019-02-04T19:07:54.627Z,10.22
2019-02-04T19:10:22.330Z,10.16
2019-02-04T19:12:50.423Z,10.12
2019-02-04T19:15:19.724Z,9.99
2019-02-04T19:17:47.732Z,9.97
2019-02-04T19:20:21.745Z,10.00
2019-02-04T19:22:52.906Z,10.13
2019-02-04T19:25:21.161Z,9.90
2019-02-04T19:27:49.993Z,9.87
2019-02-04T19:30:47.947Z,9.74
2019-02-04T19:33:19.109Z,9.78
2019-02-04T19:35:46.849Z,9.60
2019-02-04T19:38:14.554Z,9.67
2019-02-04T19:40:42.116Z,9.75
2019-02-04T19:43:14.382Z,9.46
2019-02-04T19:45:45.788Z,9.63
2019-02-04T19:48:14.036Z,9.37
2019-02-04T19:50:41.909Z,9.50
2019-02-04T19:53:09.410Z,9.30
2019-02-04T19:55:37.122Z,9.22
2019-02-04T19:58:06.884Z,9.08
2019-02-04T20:00:34.799Z,8.99
2019-02-04T20:03:02.615Z,8.91
2019-02-04T20:05:30.975Z,9.00
2019-02-04T20:07:58.715Z,9.10
2019-02-04T20:10:27.313Z,9.22
2019-02-04T20:12:55.066Z,9.07
2019-02-04T20:15:24.910Z,9.08
2019-02-04T20:17:52.486Z,9.04
2019-02-04T20:20:20.447Z,9.14
2019-02-04T20:22:48.124Z,9.19
2019-02-04T20:25:18.523Z,9.11
2019-02-04T20:27:45.974Z,9.20
2019-02-04T20:30:18.961Z,9.14
2019-02-04T20:32:51.600Z,9.00
2019-02-04T20:35:19.837Z,8.99
2019-02-04T20:37:47.543Z,8.86
2019-02-04T20:40:16.834Z,8.99
2019-02-04T20:42:44.424Z,8.88
2019-02-04T20:45:12.708Z,8.88
2019-02-04T20:47:40.590Z,8.57
2019-02-04T20:50:11.758Z,8.76
2019-02-04T20:52:39.135Z,8.66
2019-02-04T20:55:09.204Z,8.83
2019-02-04T20:57:36.596Z,8.86
2019-02-04T21:00:06.816Z,8.66
2019-02-04T21:02:34.573Z,8.53
2019-02-04T21:05:02.392Z,8.33
2019-02-04T21:07:29.741Z,8.54
2019-02-04T21:09:57.180Z,8.63
2019-02-04T21:12:24.615Z,8.58
2019-02-04T21:14:52.172Z,8.43
2019-02-04T21:17:19.680Z,8.38
2019-02-04T21:19:47.514Z,8.31
2019-02-04T21:22:14.954Z,8.33
2019-02-04T21:24:42.383Z,8.32
2019-02-04T21:27:09.957Z,8.51
2019-02-04T21:29:39.013Z,8.30
2019-02-04T21:32:06.740Z,8.30
2019-02-04T21:34:34.166Z,8.10
2019-02-04T21:37:01.831Z,8.00
2019-02-04T21:39:29.513Z,7.98
2019-02-04T21:41:56.961Z,7.83
2019-02-04T21:44:24.394Z,7.62
2019-02-04T21:46:51.776Z,7.49
2019-02-04T21:49:19.222Z,7.42
2019-02-04T21:51:46.682Z,7.28
2019-02-04T21:54:14.541Z,7.17
2019-02-04T21:56:41.916Z,7.12
2019-02-04T21:59:09.405Z,7.11
2019-02-04T22:01:37.027Z,7.31
2019-02-04T22:04:04.974Z,7.39
2019-02-04T22:06:32.435Z,7.53
2019-02-04T22:08:59.865Z,7.38
2019-02-04T22:11:27.282Z,7.15
2019-02-04T22:13:55.096Z,7.10
2019-02-04T22:16:22.545Z,7.02
2019-02-04T22:18:50.139Z,6.94
2019-02-04T22:21:17.555Z,6.81
2019-02-04T22:23:45.002Z,6.69
2019-02-04T22:26:12.507Z,6.67
2019-02-04T22:28:39.917Z,6.61
2019-02-04T22:31:07.366Z,6.71
2019-02-04T22:33:34.796Z,6.70
2019-02-04T22:36:02.307Z,6.62
2019-02-04T22:38:29.861Z,6.63
2019-02-04T22:40:57.293Z,6.51
2019-02-04T22:43:24.703Z,6.42
2019-02-04T22:45:52.223Z,6.47
2019-02-04T22:48:20.207Z,6.38
2019-02-04T22:50:47.575Z,6.32
2019-02-04T22:53:15.010Z,6.29
2019-02-04T22:55:42.568Z,6.30
2019-02-04T22:58:09.980Z,6.29
2019-02-04T23:00:46.094Z,6.39
2019-02-04T23:03:14.794Z,6.38
2019-02-04T23:05:42.445Z,6.49
2019-02-04T23:08:09.907Z,6.56
2019-02-04T23:10:37.796Z,6.72
2019-02-04T23:13:05.915Z,6.92
2019-02-04T23:15:33.368Z,6.99
2019-02-04T23:18:01.863Z,7.09
2019-02-04T23:20:29.890Z,6.92
2019-02-04T23:22:57.573Z,6.80
2019-02-04T23:25:25.589Z,6.74
2019-02-04T23:27:53.889Z,6.63
2019-02-04T23:30:22.576Z,6.57
2019-02-04T23:32:51.238Z,6.51
2019-02-04T23:35:19.465Z,6.56
2019-02-04T23:37:48.127Z,6.55
2019-02-04T23:40:16.662Z,6.53
2019-02-04T23:42:44.086Z,6.44
2019-02-04T23:45:11.669Z,6.35
2019-02-04T23:47:39.083Z,6.26
2019-02-04T23:50:07.203Z,6.18
2019-02-04T23:52:35.090Z,6.19
2019-02-04T23:55:03.378Z,6.16
2019-02-04T23:57:31.264Z,6.19
2019-02-04T23:59:58.972Z,6.16
